Chemult, Oregon
Current Conditions -  °F | °C
As of 2:35 AM on Saturday 20 Dec 2014 (Local Time) from KBDN Reporting Station
Light Rain Light Rain  
Wind Chill: 34°   Ceiling: Unl
Heat Index: 37°   Visibility: 9mi
Dew Point: 36°   Wind: 5mph
Humidity: 93%   Direction: 160°SSE
Pressure: 29.9"   Gusts: NA
Location:  43.22°N, 121.79°W
Report Text: KBDN 201035Z AUTO 16004KT 9SM -RA FEW024 03/02 A2990 RMK AO2
Loading
Personal Weather Stations






























Interactive Weather Map New forecast layout! Learn more

10-Day Weather Forecast

Advertisements
Track Severe Weather on mobile